sensor_id;sensor_type;location;lat;lon;timestamp;P1;durP1;ratioP1;P2;durP2;ratioP2
80273;SDS011;69576;51.902;-8.462;2023-10-31T00:01:02;9.48;;;6.07;;
80273;SDS011;69576;51.902;-8.462;2023-10-31T00:03:28;23.10;;;7.30;;
80273;SDS011;69576;51.902;-8.462;2023-10-31T00:05:56;12.35;;;7.05;;
80273;SDS011;69576;51.902;-8.462;2023-10-31T00:08:22;12.18;;;6.82;;
80273;SDS011;69576;51.902;-8.462;2023-10-31T00:10:49;10.57;;;6.07;;
80273;SDS011;69576;51.902;-8.462;2023-10-31T00:13:15;10.60;;;6.35;;
80273;SDS011;69576;51.902;-8.462;2023-10-31T00:15:43;12.57;;;7.40;;
80273;SDS011;69576;51.902;-8.462;2023-10-31T00:18:09;9.55;;;6.07;;
80273;SDS011;69576;51.902;-8.462;2023-10-31T00:20:35;13.45;;;7.47;;
80273;SDS011;69576;51.902;-8.462;2023-10-31T00:23:01;13.40;;;7.05;;
80273;SDS011;69576;51.902;-8.462;2023-10-31T00:25:29;11.93;;;6.65;;
80273;SDS011;69576;51.902;-8.462;2023-10-31T00:27:55;13.95;;;7.45;;
80273;SDS011;69576;51.902;-8.462;2023-10-31T00:30:20;10.45;;;6.70;;
80273;SDS011;69576;51.902;-8.462;2023-10-31T00:32:46;17.83;;;7.32;;
80273;SDS011;69576;51.902;-8.462;2023-10-31T00:35:14;16.35;;;7.25;;
80273;SDS011;69576;51.902;-8.462;2023-10-31T00:37:40;20.92;;;7.57;;
80273;SDS011;69576;51.902;-8.462;2023-10-31T00:40:06;15.30;;;7.90;;
80273;SDS011;69576;51.902;-8.462;2023-10-31T00:42:39;13.40;;;7.05;;
80273;SDS011;69576;51.902;-8.462;2023-10-31T00:45:06;15.45;;;7.85;;
80273;SDS011;69576;51.902;-8.462;2023-10-31T00:47:33;15.90;;;7.32;;
80273;SDS011;69576;51.902;-8.462;2023-10-31T00:49:59;12.63;;;7.18;;
80273;SDS011;69576;51.902;-8.462;2023-10-31T00:52:24;13.73;;;6.18;;
80273;SDS011;69576;51.902;-8.462;2023-10-31T00:54:52;15.32;;;7.15;;
80273;SDS011;69576;51.902;-8.462;2023-10-31T00:57:18;11.52;;;5.60;;
80273;SDS011;69576;51.902;-8.462;2023-10-31T00:59:49;11.82;;;6.47;;
80273;SDS011;69576;51.902;-8.462;2023-10-31T01:02:14;11.85;;;6.15;;
80273;SDS011;69576;51.902;-8.462;2023-10-31T01:04:40;11.40;;;5.20;;
80273;SDS011;69576;51.902;-8.462;2023-10-31T01:07:08;16.27;;;6.07;;
80273;SDS011;69576;51.902;-8.462;2023-10-31T01:09:37;13.48;;;5.53;;
80273;SDS011;69576;51.902;-8.462;2023-10-31T01:12:04;14.05;;;6.10;;
80273;SDS011;69576;51.902;-8.462;2023-10-31T01:14:30;12.65;;;5.88;;
80273;SDS011;69576;51.902;-8.462;2023-10-31T01:16:56;11.77;;;5.65;;
80273;SDS011;69576;51.902;-8.462;2023-10-31T01:19:21;13.25;;;5.78;;
80273;SDS011;69576;51.902;-8.462;2023-10-31T01:21:49;9.60;;;4.78;;
80273;SDS011;69576;51.902;-8.462;2023-10-31T01:24:15;13.85;;;5.57;;
80273;SDS011;69576;51.902;-8.462;2023-10-31T01:26:41;10.40;;;5.65;;
80273;SDS011;69576;51.902;-8.462;2023-10-31T01:29:07;10.35;;;5.65;;
80273;SDS011;69576;51.902;-8.462;2023-10-31T01:31:35;10.43;;;5.03;;
80273;SDS011;69576;51.902;-8.462;2023-10-31T01:34:02;12.80;;;5.18;;
80273;SDS011;69576;51.902;-8.462;2023-10-31T01:36:30;10.75;;;5.88;;
80273;SDS011;69576;51.902;-8.462;2023-10-31T01:38:56;9.57;;;4.53;;
80273;SDS011;69576;51.902;-8.462;2023-10-31T01:41:24;14.07;;;5.80;;
80273;SDS011;69576;51.902;-8.462;2023-10-31T01:43:50;10.40;;;5.78;;
80273;SDS011;69576;51.902;-8.462;2023-10-31T01:46:18;9.75;;;5.32;;
80273;SDS011;69576;51.902;-8.462;2023-10-31T01:48:47;9.35;;;5.13;;
80273;SDS011;69576;51.902;-8.462;2023-10-31T01:51:12;8.70;;;5.20;;
80273;SDS011;69576;51.902;-8.462;2023-10-31T01:53:40;9.45;;;4.18;;
80273;SDS011;69576;51.902;-8.462;2023-10-31T01:56:06;6.22;;;3.88;;
80273;SDS011;69576;51.902;-8.462;2023-10-31T01:58:36;10.60;;;4.53;;
80273;SDS011;69576;51.902;-8.462;2023-10-31T02:01:03;7.70;;;4.20;;
80273;SDS011;69576;51.902;-8.462;2023-10-31T02:03:30;7.80;;;4.30;;
80273;SDS011;69576;51.902;-8.462;2023-10-31T02:06:00;9.77;;;4.00;;
80273;SDS011;69576;51.902;-8.462;2023-10-31T02:08:26;8.05;;;3.97;;
80273;SDS011;69576;51.902;-8.462;2023-10-31T02:10:54;8.02;;;4.10;;
80273;SDS011;69576;51.902;-8.462;2023-10-31T02:13:19;7.32;;;4.20;;
80273;SDS011;69576;51.902;-8.462;2023-10-31T02:15:47;7.65;;;3.88;;
80273;SDS011;69576;51.902;-8.462;2023-10-31T02:18:13;8.35;;;4.22;;
80273;SDS011;69576;51.902;-8.462;2023-10-31T02:20:40;7.88;;;3.78;;
80273;SDS011;69576;51.902;-8.462;2023-10-31T02:23:06;7.28;;;4.25;;
80273;SDS011;69576;51.902;-8.462;2023-10-31T02:25:32;7.70;;;3.92;;
80273;SDS011;69576;51.902;-8.462;2023-10-31T02:27:58;7.65;;;4.10;;
80273;SDS011;69576;51.902;-8.462;2023-10-31T02:30:28;11.07;;;4.35;;
80273;SDS011;69576;51.902;-8.462;2023-10-31T02:32:54;7.03;;;3.75;;
80273;SDS011;69576;51.902;-8.462;2023-10-31T02:35:20;14.30;;;5.05;;
80273;SDS011;69576;51.902;-8.462;2023-10-31T02:37:48;7.85;;;3.92;;
80273;SDS011;69576;51.902;-8.462;2023-10-31T02:40:17;9.20;;;3.90;;
80273;SDS011;69576;51.902;-8.462;2023-10-31T02:42:43;6.10;;;3.80;;
80273;SDS011;69576;51.902;-8.462;2023-10-31T02:45:09;8.45;;;3.83;;
80273;SDS011;69576;51.902;-8.462;2023-10-31T02:47:37;6.85;;;3.42;;
80273;SDS011;69576;51.902;-8.462;2023-10-31T02:50:11;7.88;;;3.90;;
80273;SDS011;69576;51.902;-8.462;2023-10-31T02:52:37;7.18;;;4.00;;
80273;SDS011;69576;51.902;-8.462;2023-10-31T02:55:07;6.70;;;3.35;;
80273;SDS011;69576;51.902;-8.462;2023-10-31T02:57:33;7.60;;;4.13;;
80273;SDS011;69576;51.902;-8.462;2023-10-31T02:59:59;6.53;;;3.60;;
80273;SDS011;69576;51.902;-8.462;2023-10-31T03:02:25;6.88;;;3.60;;
80273;SDS011;69576;51.902;-8.462;2023-10-31T03:04:51;7.35;;;3.83;;
80273;SDS011;69576;51.902;-8.462;2023-10-31T03:07:19;8.07;;;3.40;;
80273;SDS011;69576;51.902;-8.462;2023-10-31T03:09:45;5.72;;;3.38;;
80273;SDS011;69576;51.902;-8.462;2023-10-31T03:12:15;7.07;;;4.13;;
80273;SDS011;69576;51.902;-8.462;2023-10-31T03:14:43;8.05;;;3.60;;
80273;SDS011;69576;51.902;-8.462;2023-10-31T03:17:09;7.55;;;3.35;;
80273;SDS011;69576;51.902;-8.462;2023-10-31T03:19:35;7.55;;;3.70;;
80273;SDS011;69576;51.902;-8.462;2023-10-31T03:22:01;5.88;;;3.42;;
80273;SDS011;69576;51.902;-8.462;2023-10-31T03:24:31;8.38;;;3.67;;
80273;SDS011;69576;51.902;-8.462;2023-10-31T03:26:59;6.35;;;2.78;;
80273;SDS011;69576;51.902;-8.462;2023-10-31T03:29:25;6.57;;;3.42;;
80273;SDS011;69576;51.902;-8.462;2023-10-31T03:31:53;5.93;;;3.33;;
80273;SDS011;69576;51.902;-8.462;2023-10-31T03:34:19;5.35;;;2.97;;
80273;SDS011;69576;51.902;-8.462;2023-10-31T03:36:45;6.22;;;2.97;;
80273;SDS011;69576;51.902;-8.462;2023-10-31T03:39:10;6.90;;;3.35;;
80273;SDS011;69576;51.902;-8.462;2023-10-31T03:41:36;6.95;;;3.45;;
80273;SDS011;69576;51.902;-8.462;2023-10-31T03:44:02;6.93;;;2.92;;
80273;SDS011;69576;51.902;-8.462;2023-10-31T03:46:28;7.07;;;2.90;;
80273;SDS011;69576;51.902;-8.462;2023-10-31T03:48:54;7.38;;;3.25;;
80273;SDS011;69576;51.902;-8.462;2023-10-31T03:51:19;7.63;;;3.35;;
80273;SDS011;69576;51.902;-8.462;2023-10-31T03:53:47;8.45;;;3.97;;
80273;SDS011;69576;51.902;-8.462;2023-10-31T03:56:15;6.47;;;2.92;;
80273;SDS011;69576;51.902;-8.462;2023-10-31T03:58:42;6.00;;;2.78;;
80273;SDS011;69576;51.902;-8.462;2023-10-31T04:01:11;5.97;;;3.20;;
80273;SDS011;69576;51.902;-8.462;2023-10-31T04:03:37;4.85;;;2.90;;
80273;SDS011;69576;51.902;-8.462;2023-10-31T04:06:05;5.53;;;2.97;;
80273;SDS011;69576;51.902;-8.462;2023-10-31T04:08:33;6.82;;;3.17;;
80273;SDS011;69576;51.902;-8.462;2023-10-31T04:10:59;5.82;;;3.00;;
80273;SDS011;69576;51.902;-8.462;2023-10-31T04:13:27;5.80;;;3.40;;
80273;SDS011;69576;51.902;-8.462;2023-10-31T04:15:53;6.72;;;2.90;;
80273;SDS011;69576;51.902;-8.462;2023-10-31T04:18:18;6.40;;;3.00;;
80273;SDS011;69576;51.902;-8.462;2023-10-31T04:20:44;4.95;;;2.97;;
80273;SDS011;69576;51.902;-8.462;2023-10-31T04:23:12;5.53;;;3.13;;
80273;SDS011;69576;51.902;-8.462;2023-10-31T04:25:38;5.25;;;3.03;;
80273;SDS011;69576;51.902;-8.462;2023-10-31T04:28:04;5.07;;;2.38;;
80273;SDS011;69576;51.902;-8.462;2023-10-31T04:30:29;5.07;;;3.00;;
80273;SDS011;69576;51.902;-8.462;2023-10-31T04:32:55;4.85;;;3.10;;
80273;SDS011;69576;51.902;-8.462;2023-10-31T04:35:25;5.68;;;3.10;;
80273;SDS011;69576;51.902;-8.462;2023-10-31T04:37:51;5.30;;;3.30;;
80273;SDS011;69576;51.902;-8.462;2023-10-31T04:40:19;6.82;;;3.60;;
80273;SDS011;69576;51.902;-8.462;2023-10-31T04:42:48;8.88;;;3.45;;
80273;SDS011;69576;51.902;-8.462;2023-10-31T04:45:16;8.10;;;3.20;;
80273;SDS011;69576;51.902;-8.462;2023-10-31T04:47:44;4.53;;;3.10;;
80273;SDS011;69576;51.902;-8.462;2023-10-31T04:50:12;7.82;;;4.47;;
80273;SDS011;69576;51.902;-8.462;2023-10-31T04:52:40;5.93;;;3.55;;
80273;SDS011;69576;51.902;-8.462;2023-10-31T04:55:07;5.70;;;2.80;;
80273;SDS011;69576;51.902;-8.462;2023-10-31T04:57:35;6.10;;;3.45;;
80273;SDS011;69576;51.902;-8.462;2023-10-31T05:00:01;5.72;;;3.55;;
80273;SDS011;69576;51.902;-8.462;2023-10-31T05:02:30;4.03;;;2.88;;
80273;SDS011;69576;51.902;-8.462;2023-10-31T05:04:58;5.15;;;3.10;;
80273;SDS011;69576;51.902;-8.462;2023-10-31T05:07:26;6.13;;;3.33;;
80273;SDS011;69576;51.902;-8.462;2023-10-31T05:09:55;5.45;;;3.05;;
80273;SDS011;69576;51.902;-8.462;2023-10-31T05:12:21;4.93;;;2.83;;
80273;SDS011;69576;51.902;-8.462;2023-10-31T05:14:49;6.95;;;2.95;;
80273;SDS011;69576;51.902;-8.462;2023-10-31T05:17:17;5.38;;;3.45;;
80273;SDS011;69576;51.902;-8.462;2023-10-31T05:19:43;5.43;;;2.58;;
80273;SDS011;69576;51.902;-8.462;2023-10-31T05:22:11;5.93;;;2.65;;
80273;SDS011;69576;51.902;-8.462;2023-10-31T05:24:36;5.22;;;3.35;;
80273;SDS011;69576;51.902;-8.462;2023-10-31T05:27:04;7.95;;;3.30;;
80273;SDS011;69576;51.902;-8.462;2023-10-31T05:29:32;6.65;;;2.50;;
80273;SDS011;69576;51.902;-8.462;2023-10-31T05:32:01;6.32;;;2.80;;
80273;SDS011;69576;51.902;-8.462;2023-10-31T05:34:29;7.38;;;2.63;;
80273;SDS011;69576;51.902;-8.462;2023-10-31T05:36:55;5.00;;;2.60;;
80273;SDS011;69576;51.902;-8.462;2023-10-31T05:39:21;7.07;;;3.25;;
80273;SDS011;69576;51.902;-8.462;2023-10-31T05:41:49;4.57;;;2.72;;
80273;SDS011;69576;51.902;-8.462;2023-10-31T05:44:15;5.63;;;3.20;;
80273;SDS011;69576;51.902;-8.462;2023-10-31T05:46:40;4.88;;;2.60;;
80273;SDS011;69576;51.902;-8.462;2023-10-31T05:49:09;6.30;;;3.10;;
80273;SDS011;69576;51.902;-8.462;2023-10-31T05:51:37;6.00;;;3.08;;
80273;SDS011;69576;51.902;-8.462;2023-10-31T05:54:11;6.38;;;3.05;;
80273;SDS011;69576;51.902;-8.462;2023-10-31T05:56:39;5.57;;;2.72;;
80273;SDS011;69576;51.902;-8.462;2023-10-31T05:59:04;6.90;;;3.10;;
80273;SDS011;69576;51.902;-8.462;2023-10-31T06:01:30;5.07;;;2.70;;
80273;SDS011;69576;51.902;-8.462;2023-10-31T06:03:58;4.60;;;2.83;;
80273;SDS011;69576;51.902;-8.462;2023-10-31T06:06:24;6.88;;;2.88;;
80273;SDS011;69576;51.902;-8.462;2023-10-31T06:08:50;5.07;;;2.67;;
80273;SDS011;69576;51.902;-8.462;2023-10-31T06:11:16;5.80;;;2.90;;
80273;SDS011;69576;51.902;-8.462;2023-10-31T06:13:44;4.40;;;2.38;;
80273;SDS011;69576;51.902;-8.462;2023-10-31T06:16:09;4.68;;;2.85;;
80273;SDS011;69576;51.902;-8.462;2023-10-31T06:18:37;5.43;;;2.47;;
80273;SDS011;69576;51.902;-8.462;2023-10-31T06:21:03;5.03;;;3.20;;
80273;SDS011;69576;51.902;-8.462;2023-10-31T06:23:29;3.47;;;2.60;;
80273;SDS011;69576;51.902;-8.462;2023-10-31T06:25:55;5.82;;;3.03;;
80273;SDS011;69576;51.902;-8.462;2023-10-31T06:28:23;5.75;;;2.60;;
80273;SDS011;69576;51.902;-8.462;2023-10-31T06:30:49;5.72;;;2.35;;
80273;SDS011;69576;51.902;-8.462;2023-10-31T06:33:17;5.53;;;2.80;;
80273;SDS011;69576;51.902;-8.462;2023-10-31T06:35:42;5.03;;;2.45;;
80273;SDS011;69576;51.902;-8.462;2023-10-31T06:38:11;4.28;;;2.10;;
80273;SDS011;69576;51.902;-8.462;2023-10-31T06:40:39;4.78;;;2.83;;
80273;SDS011;69576;51.902;-8.462;2023-10-31T06:43:04;4.47;;;3.40;;
80273;SDS011;69576;51.902;-8.462;2023-10-31T06:45:33;6.93;;;4.05;;
80273;SDS011;69576;51.902;-8.462;2023-10-31T06:47:58;8.55;;;5.55;;
80273;SDS011;69576;51.902;-8.462;2023-10-31T06:50:25;7.25;;;3.95;;
80273;SDS011;69576;51.902;-8.462;2023-10-31T06:52:51;6.18;;;3.72;;
80273;SDS011;69576;51.902;-8.462;2023-10-31T06:55:19;7.53;;;3.67;;
80273;SDS011;69576;51.902;-8.462;2023-10-31T06:57:45;5.15;;;3.28;;
80273;SDS011;69576;51.902;-8.462;2023-10-31T07:00:11;7.15;;;3.95;;
80273;SDS011;69576;51.902;-8.462;2023-10-31T07:02:37;7.82;;;3.95;;
80273;SDS011;69576;51.902;-8.462;2023-10-31T07:05:03;7.32;;;4.25;;
80273;SDS011;69576;51.902;-8.462;2023-10-31T07:07:29;7.57;;;4.57;;
80273;SDS011;69576;51.902;-8.462;2023-10-31T07:09:55;6.82;;;4.70;;
80273;SDS011;69576;51.902;-8.462;2023-10-31T07:12:23;7.57;;;4.30;;
80273;SDS011;69576;51.902;-8.462;2023-10-31T07:14:51;10.63;;;4.07;;
80273;SDS011;69576;51.902;-8.462;2023-10-31T07:17:18;7.53;;;4.72;;
80273;SDS011;69576;51.902;-8.462;2023-10-31T07:19:43;8.57;;;3.78;;
80273;SDS011;69576;51.902;-8.462;2023-10-31T07:22:11;6.97;;;4.07;;
80273;SDS011;69576;51.902;-8.462;2023-10-31T07:24:39;5.70;;;3.78;;
80273;SDS011;69576;51.902;-8.462;2023-10-31T07:27:05;7.28;;;3.72;;
80273;SDS011;69576;51.902;-8.462;2023-10-31T07:29:33;10.02;;;4.20;;
80273;SDS011;69576;51.902;-8.462;2023-10-31T07:32:02;6.20;;;3.85;;
80273;SDS011;69576;51.902;-8.462;2023-10-31T07:34:30;7.05;;;3.88;;
80273;SDS011;69576;51.902;-8.462;2023-10-31T07:36:56;5.70;;;3.65;;
80273;SDS011;69576;51.902;-8.462;2023-10-31T07:39:26;6.63;;;4.07;;
80273;SDS011;69576;51.902;-8.462;2023-10-31T07:41:52;5.78;;;3.53;;
80273;SDS011;69576;51.902;-8.462;2023-10-31T07:44:18;5.68;;;3.25;;
80273;SDS011;69576;51.902;-8.462;2023-10-31T07:46:46;6.90;;;3.72;;
80273;SDS011;69576;51.902;-8.462;2023-10-31T07:49:12;5.70;;;3.60;;
80273;SDS011;69576;51.902;-8.462;2023-10-31T07:51:40;6.05;;;3.85;;
80273;SDS011;69576;51.902;-8.462;2023-10-31T07:54:08;5.03;;;4.00;;
80273;SDS011;69576;51.902;-8.462;2023-10-31T07:56:34;6.95;;;3.75;;
80273;SDS011;69576;51.902;-8.462;2023-10-31T07:59:01;6.18;;;3.70;;
80273;SDS011;69576;51.902;-8.462;2023-10-31T08:01:29;7.22;;;3.67;;
80273;SDS011;69576;51.902;-8.462;2023-10-31T08:03:55;8.68;;;4.38;;
80273;SDS011;69576;51.902;-8.462;2023-10-31T08:06:21;5.90;;;3.42;;
80273;SDS011;69576;51.902;-8.462;2023-10-31T08:08:51;4.85;;;3.60;;
80273;SDS011;69576;51.902;-8.462;2023-10-31T08:11:17;6.70;;;3.50;;
80273;SDS011;69576;51.902;-8.462;2023-10-31T08:13:44;4.47;;;3.25;;
80273;SDS011;69576;51.902;-8.462;2023-10-31T08:16:10;6.90;;;3.65;;
80273;SDS011;69576;51.902;-8.462;2023-10-31T08:18:38;8.73;;;4.03;;
80273;SDS011;69576;51.902;-8.462;2023-10-31T08:21:06;7.88;;;3.92;;
80273;SDS011;69576;51.902;-8.462;2023-10-31T08:23:36;6.20;;;3.78;;
80273;SDS011;69576;51.902;-8.462;2023-10-31T08:26:09;8.45;;;4.30;;
80273;SDS011;69576;51.902;-8.462;2023-10-31T08:28:35;9.55;;;5.30;;
80273;SDS011;69576;51.902;-8.462;2023-10-31T08:31:01;11.18;;;6.65;;
80273;SDS011;69576;51.902;-8.462;2023-10-31T08:33:28;10.70;;;6.15;;
80273;SDS011;69576;51.902;-8.462;2023-10-31T08:35:54;8.52;;;5.22;;
80273;SDS011;69576;51.902;-8.462;2023-10-31T08:38:20;11.27;;;5.75;;
80273;SDS011;69576;51.902;-8.462;2023-10-31T08:40:46;9.98;;;5.90;;
80273;SDS011;69576;51.902;-8.462;2023-10-31T08:43:12;8.88;;;5.20;;
80273;SDS011;69576;51.902;-8.462;2023-10-31T08:45:38;11.23;;;5.82;;
80273;SDS011;69576;51.902;-8.462;2023-10-31T08:48:04;8.98;;;5.72;;
80273;SDS011;69576;51.902;-8.462;2023-10-31T08:50:29;9.50;;;5.68;;
80273;SDS011;69576;51.902;-8.462;2023-10-31T08:52:55;7.20;;;4.55;;
80273;SDS011;69576;51.902;-8.462;2023-10-31T08:55:24;7.68;;;4.75;;
80273;SDS011;69576;51.902;-8.462;2023-10-31T08:57:50;7.57;;;5.03;;
80273;SDS011;69576;51.902;-8.462;2023-10-31T09:00:17;7.35;;;4.45;;
80273;SDS011;69576;51.902;-8.462;2023-10-31T09:02:48;8.13;;;4.03;;
80273;SDS011;69576;51.902;-8.462;2023-10-31T09:05:15;8.95;;;4.38;;
80273;SDS011;69576;51.902;-8.462;2023-10-31T09:07:41;7.30;;;4.13;;
80273;SDS011;69576;51.902;-8.462;2023-10-31T09:10:07;9.60;;;4.32;;
80273;SDS011;69576;51.902;-8.462;2023-10-31T09:12:35;10.88;;;4.95;;
80273;SDS011;69576;51.902;-8.462;2023-10-31T09:15:03;7.47;;;4.45;;
80273;SDS011;69576;51.902;-8.462;2023-10-31T09:17:29;9.05;;;4.93;;
80273;SDS011;69576;51.902;-8.462;2023-10-31T09:19:55;6.60;;;3.67;;
80273;SDS011;69576;51.902;-8.462;2023-10-31T09:22:23;6.03;;;4.03;;
80273;SDS011;69576;51.902;-8.462;2023-10-31T09:24:52;8.43;;;3.95;;
80273;SDS011;69576;51.902;-8.462;2023-10-31T09:27:18;6.93;;;3.85;;
80273;SDS011;69576;51.902;-8.462;2023-10-31T09:29:48;6.68;;;3.90;;
80273;SDS011;69576;51.902;-8.462;2023-10-31T09:32:14;6.43;;;4.03;;
80273;SDS011;69576;51.902;-8.462;2023-10-31T09:34:43;7.63;;;4.55;;
80273;SDS011;69576;51.902;-8.462;2023-10-31T09:37:08;6.38;;;4.30;;
80273;SDS011;69576;51.902;-8.462;2023-10-31T09:39:34;7.75;;;4.65;;
80273;SDS011;69576;51.902;-8.462;2023-10-31T09:42:03;9.90;;;4.95;;
80273;SDS011;69576;51.902;-8.462;2023-10-31T09:44:29;10.57;;;4.32;;
80273;SDS011;69576;51.902;-8.462;2023-10-31T09:46:54;9.82;;;4.38;;
80273;SDS011;69576;51.902;-8.462;2023-10-31T09:49:24;6.72;;;3.72;;
80273;SDS011;69576;51.902;-8.462;2023-10-31T09:54:18;9.05;;;4.05;;
80273;SDS011;69576;51.902;-8.462;2023-10-31T09:56:45;8.52;;;4.38;;
80273;SDS011;69576;51.902;-8.462;2023-10-31T09:59:11;8.15;;;4.05;;
80273;SDS011;69576;51.902;-8.462;2023-10-31T10:01:41;7.47;;;3.97;;
80273;SDS011;69576;51.902;-8.462;2023-10-31T10:04:07;6.82;;;4.05;;
80273;SDS011;69576;51.902;-8.462;2023-10-31T10:06:35;6.47;;;3.53;;
80273;SDS011;69576;51.902;-8.462;2023-10-31T10:09:14;7.85;;;3.70;;
80273;SDS011;69576;51.902;-8.462;2023-10-31T10:11:42;5.47;;;3.17;;
80273;SDS011;69576;51.902;-8.462;2023-10-31T10:14:08;6.00;;;3.13;;
80273;SDS011;69576;51.902;-8.462;2023-10-31T10:16:35;5.82;;;3.40;;
80273;SDS011;69576;51.902;-8.462;2023-10-31T10:19:16;6.85;;;2.92;;
80273;SDS011;69576;51.902;-8.462;2023-10-31T10:21:46;5.57;;;2.90;;
80273;SDS011;69576;51.902;-8.462;2023-10-31T10:24:19;4.03;;;2.85;;
80273;SDS011;69576;51.902;-8.462;2023-10-31T10:26:48;4.45;;;2.55;;
80273;SDS011;69576;51.902;-8.462;2023-10-31T10:29:14;5.28;;;2.75;;
80273;SDS011;69576;51.902;-8.462;2023-10-31T10:31:40;5.40;;;3.25;;
80273;SDS011;69576;51.902;-8.462;2023-10-31T10:34:07;7.63;;;3.42;;
80273;SDS011;69576;51.902;-8.462;2023-10-31T10:36:34;6.82;;;3.25;;
80273;SDS011;69576;51.902;-8.462;2023-10-31T10:39:00;5.50;;;3.22;;
80273;SDS011;69576;51.902;-8.462;2023-10-31T10:41:29;5.72;;;3.40;;
80273;SDS011;69576;51.902;-8.462;2023-10-31T10:43:56;9.48;;;4.10;;
80273;SDS011;69576;51.902;-8.462;2023-10-31T10:46:28;6.07;;;3.10;;
80273;SDS011;69576;51.902;-8.462;2023-10-31T10:49:03;4.47;;;2.70;;
80273;SDS011;69576;51.902;-8.462;2023-10-31T10:54:09;6.60;;;3.90;;
80273;SDS011;69576;51.902;-8.462;2023-10-31T10:56:49;7.63;;;4.25;;
80273;SDS011;69576;51.902;-8.462;2023-10-31T10:59:22;7.97;;;4.25;;
80273;SDS011;69576;51.902;-8.462;2023-10-31T11:02:06;6.00;;;3.75;;
80273;SDS011;69576;51.902;-8.462;2023-10-31T11:04:33;7.88;;;3.88;;
80273;SDS011;69576;51.902;-8.462;2023-10-31T11:07:05;6.22;;;3.22;;
80273;SDS011;69576;51.902;-8.462;2023-10-31T11:09:31;7.20;;;3.78;;
80273;SDS011;69576;51.902;-8.462;2023-10-31T11:11:58;5.25;;;3.47;;
80273;SDS011;69576;51.902;-8.462;2023-10-31T11:14:25;6.93;;;4.07;;
80273;SDS011;69576;51.902;-8.462;2023-10-31T11:16:52;7.00;;;3.88;;
80273;SDS011;69576;51.902;-8.462;2023-10-31T11:19:20;5.68;;;3.63;;
80273;SDS011;69576;51.902;-8.462;2023-10-31T11:21:57;6.20;;;3.17;;
80273;SDS011;69576;51.902;-8.462;2023-10-31T11:24:27;8.07;;;4.55;;
80273;SDS011;69576;51.902;-8.462;2023-10-31T11:27:00;6.88;;;3.63;;
80273;SDS011;69576;51.902;-8.462;2023-10-31T11:29:27;7.25;;;4.50;;
80273;SDS011;69576;51.902;-8.462;2023-10-31T11:31:56;6.57;;;4.00;;
80273;SDS011;69576;51.902;-8.462;2023-10-31T11:34:22;7.85;;;3.85;;
80273;SDS011;69576;51.902;-8.462;2023-10-31T11:36:51;8.90;;;3.78;;
80273;SDS011;69576;51.902;-8.462;2023-10-31T11:39:18;7.03;;;4.20;;
80273;SDS011;69576;51.902;-8.462;2023-10-31T11:41:53;6.45;;;3.25;;
80273;SDS011;69576;51.902;-8.462;2023-10-31T11:44:23;7.10;;;3.50;;
80273;SDS011;69576;51.902;-8.462;2023-10-31T11:46:57;5.78;;;3.28;;
80273;SDS011;69576;51.902;-8.462;2023-10-31T11:49:45;9.73;;;3.55;;
80273;SDS011;69576;51.902;-8.462;2023-10-31T11:52:16;5.63;;;2.92;;
80273;SDS011;69576;51.902;-8.462;2023-10-31T11:54:42;6.28;;;3.40;;
80273;SDS011;69576;51.902;-8.462;2023-10-31T11:59:53;7.10;;;3.13;;
80273;SDS011;69576;51.902;-8.462;2023-10-31T12:02:21;7.43;;;3.50;;
80273;SDS011;69576;51.902;-8.462;2023-10-31T12:04:47;5.78;;;2.90;;
80273;SDS011;69576;51.902;-8.462;2023-10-31T12:07:16;9.13;;;3.72;;
80273;SDS011;69576;51.902;-8.462;2023-10-31T12:09:49;6.97;;;3.55;;
80273;SDS011;69576;51.902;-8.462;2023-10-31T12:12:14;8.52;;;3.85;;
80273;SDS011;69576;51.902;-8.462;2023-10-31T12:14:40;5.82;;;3.17;;
80273;SDS011;69576;51.902;-8.462;2023-10-31T12:17:06;6.93;;;3.50;;
80273;SDS011;69576;51.902;-8.462;2023-10-31T12:19:37;6.63;;;3.92;;
80273;SDS011;69576;51.902;-8.462;2023-10-31T12:22:11;8.05;;;3.67;;
80273;SDS011;69576;51.902;-8.462;2023-10-31T12:24:39;7.55;;;3.38;;
80273;SDS011;69576;51.902;-8.462;2023-10-31T12:27:04;8.07;;;3.40;;
80273;SDS011;69576;51.902;-8.462;2023-10-31T12:29:33;6.18;;;2.85;;
80273;SDS011;69576;51.902;-8.462;2023-10-31T12:32:03;5.75;;;2.92;;
80273;SDS011;69576;51.902;-8.462;2023-10-31T12:34:43;6.55;;;3.13;;
80273;SDS011;69576;51.902;-8.462;2023-10-31T12:37:09;8.20;;;2.85;;
80273;SDS011;69576;51.902;-8.462;2023-10-31T12:39:35;4.88;;;2.72;;
80273;SDS011;69576;51.902;-8.462;2023-10-31T12:42:02;4.22;;;2.35;;
80273;SDS011;69576;51.902;-8.462;2023-10-31T12:44:28;8.23;;;2.55;;
80273;SDS011;69576;51.902;-8.462;2023-10-31T12:46:59;3.72;;;2.42;;
80273;SDS011;69576;51.902;-8.462;2023-10-31T12:49:29;5.30;;;2.63;;
80273;SDS011;69576;51.902;-8.462;2023-10-31T12:54:31;4.53;;;2.42;;
80273;SDS011;69576;51.902;-8.462;2023-10-31T12:57:01;3.58;;;1.98;;
80273;SDS011;69576;51.902;-8.462;2023-10-31T12:59:35;9.55;;;2.45;;
80273;SDS011;69576;51.902;-8.462;2023-10-31T13:02:07;3.72;;;2.08;;
80273;SDS011;69576;51.902;-8.462;2023-10-31T13:04:35;4.55;;;2.20;;
80273;SDS011;69576;51.902;-8.462;2023-10-31T13:07:05;5.80;;;2.33;;
80273;SDS011;69576;51.902;-8.462;2023-10-31T13:09:33;3.08;;;2.13;;
80273;SDS011;69576;51.902;-8.462;2023-10-31T13:12:04;7.38;;;2.30;;
80273;SDS011;69576;51.902;-8.462;2023-10-31T13:14:38;4.95;;;2.38;;
80273;SDS011;69576;51.902;-8.462;2023-10-31T13:17:04;4.20;;;2.10;;
80273;SDS011;69576;51.902;-8.462;2023-10-31T13:19:30;4.75;;;1.90;;
80273;SDS011;69576;51.902;-8.462;2023-10-31T13:21:56;3.42;;;1.77;;
80273;SDS011;69576;51.902;-8.462;2023-10-31T13:24:23;4.30;;;2.30;;
80273;SDS011;69576;51.902;-8.462;2023-10-31T13:26:52;6.05;;;2.50;;
80273;SDS011;69576;51.902;-8.462;2023-10-31T13:29:18;3.65;;;2.05;;
80273;SDS011;69576;51.902;-8.462;2023-10-31T13:31:45;6.97;;;1.67;;
80273;SDS011;69576;51.902;-8.462;2023-10-31T13:34:10;6.35;;;1.55;;
80273;SDS011;69576;51.902;-8.462;2023-10-31T13:36:36;2.60;;;1.33;;
80273;SDS011;69576;51.902;-8.462;2023-10-31T13:39:04;2.85;;;1.23;;
80273;SDS011;69576;51.902;-8.462;2023-10-31T13:41:30;2.60;;;1.52;;
80273;SDS011;69576;51.902;-8.462;2023-10-31T13:43:58;1.52;;;1.20;;
80273;SDS011;69576;51.902;-8.462;2023-10-31T13:46:28;4.78;;;1.55;;
80273;SDS011;69576;51.902;-8.462;2023-10-31T13:48:54;4.38;;;1.15;;
80273;SDS011;69576;51.902;-8.462;2023-10-31T13:51:20;1.38;;;0.93;;
80273;SDS011;69576;51.902;-8.462;2023-10-31T13:53:48;1.67;;;1.10;;
80273;SDS011;69576;51.902;-8.462;2023-10-31T13:56:15;4.88;;;1.20;;
80273;SDS011;69576;51.902;-8.462;2023-10-31T13:58:42;1.48;;;1.00;;
80273;SDS011;69576;51.902;-8.462;2023-10-31T14:01:10;1.13;;;0.80;;
80273;SDS011;69576;51.902;-8.462;2023-10-31T14:03:36;3.85;;;1.20;;
80273;SDS011;69576;51.902;-8.462;2023-10-31T14:06:04;3.97;;;1.33;;
80273;SDS011;69576;51.902;-8.462;2023-10-31T14:08:30;1.17;;;0.90;;
80273;SDS011;69576;51.902;-8.462;2023-10-31T14:10:56;7.05;;;2.05;;
80273;SDS011;69576;51.902;-8.462;2023-10-31T14:13:22;3.17;;;1.35;;
80273;SDS011;69576;51.902;-8.462;2023-10-31T14:15:51;3.67;;;1.38;;
80273;SDS011;69576;51.902;-8.462;2023-10-31T14:18:16;5.53;;;1.70;;
80273;SDS011;69576;51.902;-8.462;2023-10-31T14:20:45;7.35;;;1.67;;
80273;SDS011;69576;51.902;-8.462;2023-10-31T14:23:10;6.72;;;1.88;;
80273;SDS011;69576;51.902;-8.462;2023-10-31T14:25:39;4.90;;;1.58;;
80273;SDS011;69576;51.902;-8.462;2023-10-31T14:28:05;3.63;;;1.42;;
80273;SDS011;69576;51.902;-8.462;2023-10-31T14:30:31;4.70;;;1.70;;
80273;SDS011;69576;51.902;-8.462;2023-10-31T14:33:00;2.17;;;1.40;;
80273;SDS011;69576;51.902;-8.462;2023-10-31T14:35:26;4.35;;;1.75;;
80273;SDS011;69576;51.902;-8.462;2023-10-31T14:37:52;6.80;;;1.92;;
80273;SDS011;69576;51.902;-8.462;2023-10-31T14:40:18;2.53;;;1.17;;
80273;SDS011;69576;51.902;-8.462;2023-10-31T14:42:44;7.30;;;1.70;;
80273;SDS011;69576;51.902;-8.462;2023-10-31T14:45:12;2.83;;;1.83;;